createdAt,value
2019-03-20T00:00:03.177Z,1028.96
2019-03-20T00:01:03.114Z,1029.01
2019-03-20T00:02:03.093Z,1029.00
2019-03-20T00:03:02.922Z,1029.01
2019-03-20T00:04:03.897Z,1029.04
2019-03-20T00:05:02.743Z,1029.03
2019-03-20T00:06:02.680Z,1029.03
2019-03-20T00:07:02.585Z,1029.00
2019-03-20T00:08:02.594Z,1029.03
2019-03-20T00:09:02.391Z,1029.00
2019-03-20T00:10:04.346Z,1029.04
2019-03-20T00:11:02.219Z,1028.99
2019-03-20T00:12:02.144Z,1029.00
2019-03-20T00:13:02.114Z,1029.04
2019-03-20T00:14:01.955Z,1029.03
2019-03-20T00:15:01.875Z,1029.01
2019-03-20T00:16:08.796Z,1029.02
2019-03-20T00:17:03.950Z,1029.04
2019-03-20T00:18:01.608Z,1029.02
2019-03-20T00:19:01.530Z,1029.02
2019-03-20T00:20:01.437Z,1029.02
2019-03-20T00:21:01.455Z,1028.99
2019-03-20T00:22:01.276Z,1029.01
2019-03-20T00:23:01.262Z,1028.97
2019-03-20T00:24:01.088Z,1029.05
2019-03-20T00:25:01.073Z,1029.08
2019-03-20T00:26:00.912Z,1029.09
2019-03-20T00:27:00.836Z,1029.12
2019-03-20T00:28:00.788Z,1029.11
2019-03-20T00:29:00.649Z,1029.09
2019-03-20T00:30:00.564Z,1029.10
2019-03-20T00:31:00.500Z,1029.07
2019-03-20T00:32:00.403Z,1029.07
2019-03-20T00:33:00.305Z,1029.09
2019-03-20T00:34:00.315Z,1029.14
2019-03-20T00:35:01.256Z,1029.11
2019-03-20T00:36:00.037Z,1029.19
2019-03-20T00:37:00.097Z,1029.18
2019-03-20T00:37:59.863Z,1029.21
2019-03-20T00:38:59.805Z,1029.19
2019-03-20T00:39:59.742Z,1029.18
2019-03-20T00:40:59.608Z,1029.19
2019-03-20T00:41:59.532Z,1029.16
2019-03-20T00:42:59.453Z,1029.16
2019-03-20T00:43:59.344Z,1029.15
2019-03-20T00:44:59.259Z,1029.20
2019-03-20T00:45:59.269Z,1029.16
2019-03-20T00:46:59.097Z,1029.15
2019-03-20T00:47:59.008Z,1029.13
2019-03-20T00:48:58.985Z,1029.10
2019-03-20T00:49:58.817Z,1029.13
2019-03-20T00:50:58.734Z,1029.12
2019-03-20T00:51:58.695Z,1029.16
2019-03-20T00:52:58.574Z,1029.12
2019-03-20T00:53:58.505Z,1029.10
2019-03-20T00:54:58.387Z,1029.08
2019-03-20T00:55:58.313Z,1029.13
2019-03-20T00:56:58.214Z,1029.13
2019-03-20T00:57:58.133Z,1029.10
2019-03-20T00:58:58.132Z,1029.13
2019-03-20T00:59:57.945Z,1029.14
2019-03-20T01:00:57.859Z,1029.11
2019-03-20T01:01:59.789Z,1029.13
2019-03-20T01:02:57.708Z,1029.13
2019-03-20T01:03:57.652Z,1029.15
2019-03-20T01:04:57.517Z,1029.17
2019-03-20T01:05:57.460Z,1029.12
2019-03-20T01:06:57.333Z,1029.17
2019-03-20T01:07:57.300Z,1029.19
2019-03-20T01:08:57.165Z,1029.18
2019-03-20T01:09:57.183Z,1029.16
2019-03-20T01:10:56.999Z,1029.18
2019-03-20T01:11:56.991Z,1029.20
2019-03-20T01:12:56.829Z,1029.21
2019-03-20T01:13:56.736Z,1029.22
2019-03-20T01:14:56.708Z,1029.27
2019-03-20T01:15:56.551Z,1029.29
2019-03-20T01:16:56.462Z,1029.30
2019-03-20T01:17:56.454Z,1029.33
2019-03-20T01:18:56.294Z,1029.32
2019-03-20T01:19:56.229Z,1029.33
2019-03-20T01:20:56.119Z,1029.31
2019-03-20T01:21:56.140Z,1029.30
2019-03-20T01:22:55.958Z,1029.27
2019-03-20T01:23:55.948Z,1029.25
2019-03-20T01:24:55.766Z,1029.24
2019-03-20T01:25:55.689Z,1029.23
2019-03-20T01:26:55.592Z,1029.20
2019-03-20T01:27:55.531Z,1029.22
2019-03-20T01:28:55.471Z,1029.17
2019-03-20T01:29:55.330Z,1029.19
2019-03-20T01:30:55.247Z,1029.20
2019-03-20T01:31:55.184Z,1029.16
2019-03-20T01:32:55.081Z,1029.13
2019-03-20T01:33:55.117Z,1029.12
2019-03-20T01:34:54.998Z,1029.06
2019-03-20T01:35:54.819Z,1029.07
2019-03-20T01:36:54.810Z,1029.05
2019-03-20T01:37:54.645Z,1029.10
2019-03-20T01:38:54.621Z,1029.11
2019-03-20T01:39:54.464Z,1029.15
2019-03-20T01:40:54.430Z,1029.15
2019-03-20T01:41:54.279Z,1029.15
2019-03-20T01:42:54.275Z,1029.19
2019-03-20T01:43:54.106Z,1029.20
2019-03-20T01:44:54.046Z,1029.21
2019-03-20T01:45:53.931Z,1029.16
2019-03-20T01:46:53.957Z,1029.16
2019-03-20T01:47:53.774Z,1029.16
2019-03-20T01:48:53.773Z,1029.15
2019-03-20T01:49:53.581Z,1029.17
2019-03-20T01:50:53.579Z,1029.13
2019-03-20T01:51:53.421Z,1029.15
2019-03-20T01:52:55.361Z,1029.10
2019-03-20T01:53:53.234Z,1029.09
2019-03-20T01:54:53.139Z,1029.10
2019-03-20T01:55:53.099Z,1029.09
2019-03-20T01:56:52.968Z,1029.03
2019-03-20T01:57:52.898Z,1029.10
2019-03-20T01:58:52.812Z,1029.08
2019-03-20T01:59:52.711Z,1029.10
2019-03-20T02:00:52.723Z,1029.10
2019-03-20T02:01:52.549Z,1029.10
2019-03-20T02:02:52.562Z,1029.10
2019-03-20T02:03:52.357Z,1029.08
2019-03-20T02:04:52.352Z,1029.13
2019-03-20T02:05:52.179Z,1029.14
2019-03-20T02:06:52.148Z,1029.13
2019-03-20T02:07:52.016Z,1029.12
2019-03-20T02:08:51.930Z,1029.15
2019-03-20T02:10:06.822Z,1029.15
2019-03-20T02:10:51.745Z,1029.09
2019-03-20T02:11:51.659Z,1029.07
2019-03-20T02:12:51.683Z,1029.04
2019-03-20T02:13:51.499Z,1029.03
2019-03-20T02:14:51.489Z,1029.06
2019-03-20T02:15:51.308Z,1029.05
2019-03-20T02:16:51.296Z,1029.13
2019-03-20T02:17:51.130Z,1029.14
2019-03-20T02:18:51.134Z,1029.15
2019-03-20T02:19:50.956Z,1029.15
2019-03-20T02:20:50.915Z,1029.12
2019-03-20T02:21:50.781Z,1029.15
2019-03-20T02:22:50.733Z,1029.16
2019-03-20T02:23:50.617Z,1029.14
2019-03-20T02:24:50.636Z,1029.12
2019-03-20T02:25:50.432Z,1029.13
2019-03-20T02:26:50.442Z,1029.15
2019-03-20T02:27:50.259Z,1029.17
2019-03-20T02:28:50.289Z,1029.17
2019-03-20T02:29:50.081Z,1029.18
2019-03-20T02:30:50.061Z,1029.21
2019-03-20T02:31:49.904Z,1029.18
2019-03-20T02:32:51.924Z,1029.23
2019-03-20T02:33:49.760Z,1029.24
2019-03-20T02:34:49.647Z,1029.27
2019-03-20T02:35:51.929Z,1029.30
2019-03-20T02:36:49.479Z,1029.27
2019-03-20T02:37:49.380Z,1029.30
2019-03-20T02:38:49.328Z,1029.21
2019-03-20T02:39:49.222Z,1029.23
2019-03-20T02:40:49.216Z,1029.26
2019-03-20T02:41:49.033Z,1029.23
2019-03-20T02:42:49.021Z,1029.19
2019-03-20T02:43:48.871Z,1029.23
2019-03-20T02:44:48.832Z,1029.23
2019-03-20T02:45:48.681Z,1029.20
2019-03-20T02:46:48.647Z,1029.21
2019-03-20T02:47:48.510Z,1029.24
2019-03-20T02:48:48.475Z,1029.20
2019-03-20T02:49:48.334Z,1029.16
2019-03-20T02:50:48.258Z,1029.13
2019-03-20T02:51:48.157Z,1029.16
2019-03-20T02:52:48.188Z,1029.11
2019-03-20T02:53:47.992Z,1029.15
2019-03-20T02:54:47.973Z,1029.13
2019-03-20T02:55:47.804Z,1029.09
2019-03-20T02:56:47.789Z,1029.10
2019-03-20T02:57:47.637Z,1029.04
2019-03-20T02:58:47.626Z,1029.04
2019-03-20T02:59:47.452Z,1029.08
2019-03-20T03:00:47.416Z,1029.01
2019-03-20T03:01:47.289Z,1029.02
2019-03-20T03:02:47.217Z,1029.05
2019-03-20T03:03:47.117Z,1029.09
2019-03-20T03:04:47.014Z,1029.09
2019-03-20T03:05:46.935Z,1029.08
2019-03-20T03:06:46.846Z,1029.08
2019-03-20T03:07:46.760Z,1029.07
2019-03-20T03:08:46.794Z,1029.10
2019-03-20T03:09:46.574Z,1029.09
2019-03-20T03:10:46.569Z,1029.09
2019-03-20T03:11:46.412Z,1029.08
2019-03-20T03:12:46.360Z,1029.12
2019-03-20T03:13:46.238Z,1029.12
2019-03-20T03:14:46.145Z,1029.15
2019-03-20T03:15:46.078Z,1029.15
2019-03-20T03:16:45.961Z,1029.15
2019-03-20T03:17:45.888Z,1029.15
2019-03-20T03:18:45.820Z,1029.14
2019-03-20T03:19:45.702Z,1029.12
2019-03-20T03:20:45.610Z,1029.08
2019-03-20T03:21:45.602Z,1029.07
2019-03-20T03:22:45.445Z,1029.06
2019-03-20T03:23:45.360Z,1029.09
2019-03-20T03:24:45.316Z,1029.07
2019-03-20T03:25:45.170Z,1029.12
2019-03-20T03:26:45.093Z,1029.12
2019-03-20T03:27:45.029Z,1029.10
2019-03-20T03:28:44.923Z,1029.11
2019-03-20T03:29:44.823Z,1029.11
2019-03-20T03:30:45.766Z,1029.10
2019-03-20T03:31:44.646Z,1029.21
2019-03-20T03:32:44.572Z,1029.16
2019-03-20T03:33:44.592Z,1029.16
2019-03-20T03:34:44.390Z,1029.14
2019-03-20T03:35:44.314Z,1029.14
2019-03-20T03:36:44.273Z,1029.16
2019-03-20T03:37:44.125Z,1029.17
2019-03-20T03:38:44.080Z,1029.21
2019-03-20T03:39:43.965Z,1029.22
2019-03-20T03:40:43.892Z,1029.21
2019-03-20T03:41:43.772Z,1029.20
2019-03-20T03:42:43.699Z,1029.24
2019-03-20T03:43:43.598Z,1029.25
2019-03-20T03:44:43.541Z,1029.25
2019-03-20T03:45:43.417Z,1029.28
2019-03-20T03:46:44.447Z,1029.28
2019-03-20T03:47:43.270Z,1029.33
2019-03-20T03:48:43.228Z,1029.31
2019-03-20T03:49:43.084Z,1029.33
2019-03-20T03:50:43.038Z,1029.35
2019-03-20T03:51:42.899Z,1029.35
2019-03-20T03:52:49.810Z,1029.39
2019-03-20T03:53:42.718Z,1029.38
2019-03-20T03:54:42.688Z,1029.37
2019-03-20T03:55:42.549Z,1029.39
2019-03-20T03:56:42.453Z,1029.42
2019-03-20T03:57:42.473Z,1029.38
2019-03-20T03:58:42.283Z,1029.42
2019-03-20T03:59:42.208Z,1029.42
2019-03-20T04:00:42.185Z,1029.38
2019-03-20T04:01:42.013Z,1029.40
2019-03-20T04:02:41.932Z,1029.41
2019-03-20T04:03:43.948Z,1029.41
2019-03-20T04:04:41.793Z,1029.40
2019-03-20T04:05:41.760Z,1029.42
2019-03-20T04:06:41.632Z,1029.42
2019-03-20T04:07:41.491Z,1029.42
2019-03-20T04:08:41.408Z,1029.45
2019-03-20T04:09:41.365Z,1029.40
2019-03-20T04:10:41.229Z,1029.44
2019-03-20T04:11:41.154Z,1029.44
2019-03-20T04:12:41.145Z,1029.44
2019-03-20T04:13:40.978Z,1029.41
2019-03-20T04:14:40.896Z,1029.41
2019-03-20T04:15:40.801Z,1029.40
2019-03-20T04:16:40.760Z,1029.42
2019-03-20T04:17:40.653Z,1029.36
2019-03-20T04:18:40.532Z,1029.39
2019-03-20T04:19:40.454Z,1029.37
2019-03-20T04:20:42.362Z,1029.39
2019-03-20T04:21:40.264Z,1029.36
2019-03-20T04:22:40.189Z,1029.41
2019-03-20T04:23:40.085Z,1029.40
2019-03-20T04:24:40.032Z,1029.38
2019-03-20T04:25:39.920Z,1029.43
2019-03-20T04:26:39.927Z,1029.42
2019-03-20T04:27:39.754Z,1029.40
2019-03-20T04:28:39.719Z,1029.41
2019-03-20T04:29:39.579Z,1029.43
2019-03-20T04:30:39.478Z,1029.45
2019-03-20T04:31:39.432Z,1029.42
2019-03-20T04:32:39.296Z,1029.41
2019-03-20T04:33:39.219Z,1029.47
2019-03-20T04:34:39.172Z,1029.47
2019-03-20T04:35:39.038Z,1029.47
2019-03-20T04:36:47.620Z,1029.44
2019-03-20T04:37:38.956Z,1029.45
2019-03-20T04:38:38.803Z,1029.47
2019-03-20T04:39:38.694Z,1029.45
2019-03-20T04:40:38.691Z,1029.47
2019-03-20T04:41:38.511Z,1029.47
2019-03-20T04:42:38.423Z,1029.48
2019-03-20T04:43:40.435Z,1029.45
2019-03-20T04:44:38.256Z,1029.43
2019-03-20T04:45:38.155Z,1029.45
2019-03-20T04:46:38.097Z,1029.49
2019-03-20T04:47:37.982Z,1029.48
2019-03-20T04:48:37.891Z,1029.49
2019-03-20T04:49:37.825Z,1029.45
2019-03-20T04:50:37.718Z,1029.51
2019-03-20T04:51:37.631Z,1029.49
2019-03-20T04:52:37.628Z,1029.41
2019-03-20T04:53:37.458Z,1029.43
2019-03-20T04:54:37.380Z,1029.44
2019-03-20T04:55:44.818Z,1029.43
2019-03-20T04:56:37.190Z,1029.42
2019-03-20T04:57:37.104Z,1029.42
2019-03-20T04:58:37.138Z,1029.39
2019-03-20T04:59:36.950Z,1029.39
2019-03-20T05:00:36.845Z,1029.39
2019-03-20T05:01:36.768Z,1029.37
2019-03-20T05:02:36.673Z,1029.35
2019-03-20T05:03:36.575Z,1029.36
2019-03-20T05:04:36.616Z,1029.38
2019-03-20T05:05:36.400Z,1029.39
2019-03-20T05:06:36.313Z,1029.40
2019-03-20T05:07:36.428Z,1029.37
2019-03-20T05:08:36.137Z,1029.39
2019-03-20T05:09:36.074Z,1029.41
2019-03-20T05:10:36.035Z,1029.45
2019-03-20T05:11:35.918Z,1029.43
2019-03-20T05:12:35.845Z,1029.47
2019-03-20T05:13:35.712Z,1029.46
2019-03-20T05:14:35.688Z,1029.49
2019-03-20T05:15:35.521Z,1029.46
2019-03-20T05:16:35.444Z,1029.43
2019-03-20T05:17:35.467Z,1029.47
2019-03-20T05:18:35.268Z,1029.48
2019-03-20T05:19:35.193Z,1029.48
2019-03-20T05:20:35.283Z,1029.56
2019-03-20T05:21:34.999Z,1029.57
2019-03-20T05:22:34.918Z,1029.61
2019-03-20T05:23:34.904Z,1029.64
2019-03-20T05:24:34.749Z,1029.64
2019-03-20T05:25:34.649Z,1029.67
2019-03-20T05:26:34.708Z,1029.64
2019-03-20T05:27:34.472Z,1029.69
2019-03-20T05:28:34.646Z,1029.68
2019-03-20T05:29:34.312Z,1029.66
2019-03-20T05:30:34.221Z,1029.65
2019-03-20T05:31:34.124Z,1029.68
2019-03-20T05:32:34.041Z,1029.68
2019-03-20T05:33:34.053Z,1029.68
2019-03-20T05:34:33.886Z,1029.71
2019-03-20T05:35:33.779Z,1029.76
2019-03-20T05:36:33.758Z,1029.81
2019-03-20T05:37:33.601Z,1029.82
2019-03-20T05:38:33.510Z,1029.80
2019-03-20T05:39:33.444Z,1029.83
2019-03-20T05:40:33.355Z,1029.84
2019-03-20T05:41:33.265Z,1029.80
2019-03-20T05:42:33.195Z,1029.79
2019-03-20T05:43:33.074Z,1029.82
2019-03-20T05:44:32.992Z,1029.83
2019-03-20T05:45:32.918Z,1029.84
2019-03-20T05:46:32.827Z,1029.83
2019-03-20T05:47:32.728Z,1029.85
2019-03-20T05:48:32.652Z,1029.87
2019-03-20T05:49:32.571Z,1029.85
2019-03-20T05:50:32.529Z,1029.85
2019-03-20T05:51:32.451Z,1029.86
2019-03-20T05:52:32.314Z,1029.86
2019-03-20T05:53:32.232Z,1029.87
2019-03-20T05:54:32.191Z,1029.91
2019-03-20T05:55:32.049Z,1029.95
2019-03-20T05:56:31.970Z,1029.99
2019-03-20T05:57:31.856Z,1029.97
2019-03-20T05:58:31.777Z,1030.00
2019-03-20T05:59:31.910Z,1029.98
2019-03-20T06:00:31.611Z,1030.04
2019-03-20T06:01:31.505Z,1030.05
2019-03-20T06:02:31.426Z,1030.05
2019-03-20T06:03:31.350Z,1030.08
2019-03-20T06:04:31.253Z,1030.08
2019-03-20T06:05:31.175Z,1030.11
2019-03-20T06:06:31.082Z,1030.09
2019-03-20T06:07:30.987Z,1030.09
2019-03-20T06:08:31.364Z,1030.15
2019-03-20T06:09:30.810Z,1030.16
2019-03-20T06:10:30.746Z,1030.18
2019-03-20T06:11:30.649Z,1030.18
2019-03-20T06:12:30.555Z,1030.23
2019-03-20T06:13:30.473Z,1030.19
2019-03-20T06:14:30.377Z,1030.23
2019-03-20T06:15:30.313Z,1030.24
2019-03-20T06:16:30.212Z,1030.25
2019-03-20T06:17:30.128Z,1030.29
2019-03-20T06:18:30.039Z,1030.31
2019-03-20T06:19:29.960Z,1030.32
2019-03-20T06:20:29.890Z,1030.33
2019-03-20T06:21:29.774Z,1030.31
2019-03-20T06:22:29.695Z,1030.25
2019-03-20T06:23:29.611Z,1030.30
2019-03-20T06:24:29.521Z,1030.26
2019-03-20T06:25:29.453Z,1030.25
2019-03-20T06:26:29.366Z,1030.19
2019-03-20T06:27:29.260Z,1030.22
2019-03-20T06:28:29.173Z,1030.23
2019-03-20T06:29:29.093Z,1030.24
2019-03-20T06:30:29.015Z,1030.30
2019-03-20T06:31:28.918Z,1030.28
2019-03-20T06:32:28.850Z,1030.35
2019-03-20T06:33:28.744Z,1030.33
2019-03-20T06:34:28.661Z,1030.36
2019-03-20T06:35:28.604Z,1030.35
2019-03-20T06:36:28.533Z,1030.42
2019-03-20T06:37:32.514Z,1030.42
2019-03-20T06:38:28.334Z,1030.41
2019-03-20T06:39:28.234Z,1030.41
2019-03-20T06:40:28.147Z,1030.44
2019-03-20T06:41:28.082Z,1030.39
2019-03-20T06:42:27.988Z,1030.43
2019-03-20T06:43:27.894Z,1030.41
2019-03-20T06:44:27.800Z,1030.42
2019-03-20T06:45:27.715Z,1030.42
2019-03-20T06:46:27.647Z,1030.36
2019-03-20T06:47:27.542Z,1030.39
2019-03-20T06:48:27.469Z,1030.44
2019-03-20T06:49:27.373Z,1030.40
2019-03-20T06:50:27.296Z,1030.42
2019-03-20T06:51:27.223Z,1030.45
2019-03-20T06:52:27.129Z,1030.52
2019-03-20T06:53:27.033Z,1030.53
2019-03-20T06:54:26.965Z,1030.54
2019-03-20T06:55:26.864Z,1030.54
2019-03-20T06:56:26.792Z,1030.55
2019-03-20T06:57:26.688Z,1030.59
2019-03-20T06:58:26.607Z,1030.59
2019-03-20T06:59:26.525Z,1030.61
2019-03-20T07:00:26.435Z,1030.59
2019-03-20T07:01:26.833Z,1030.65
2019-03-20T07:02:26.272Z,1030.59
2019-03-20T07:03:26.183Z,1030.53
2019-03-20T07:04:26.093Z,1030.49
2019-03-20T07:05:26.014Z,1030.52
2019-03-20T07:06:25.937Z,1030.48
2019-03-20T07:07:25.842Z,1030.54
2019-03-20T07:08:25.771Z,1030.55
2019-03-20T07:09:25.681Z,1030.59
2019-03-20T07:10:25.586Z,1030.59
2019-03-20T07:11:25.512Z,1030.60
2019-03-20T07:12:25.408Z,1030.61
2019-03-20T07:13:25.335Z,1030.63
2019-03-20T07:14:25.240Z,1030.65
2019-03-20T07:15:25.164Z,1030.69
2019-03-20T07:16:25.087Z,1030.72
2019-03-20T07:17:24.991Z,1030.77
2019-03-20T07:18:24.906Z,1030.77
2019-03-20T07:19:24.824Z,1030.79
2019-03-20T07:20:24.739Z,1030.79
2019-03-20T07:21:24.659Z,1030.79
2019-03-20T07:22:24.565Z,1030.83
2019-03-20T07:23:24.478Z,1030.83
2019-03-20T07:24:24.390Z,1030.87
2019-03-20T07:25:24.316Z,1030.89
2019-03-20T07:26:24.250Z,1030.84
2019-03-20T07:27:24.139Z,1030.83
2019-03-20T07:28:24.063Z,1030.84
2019-03-20T07:29:23.967Z,1030.90
2019-03-20T07:30:23.886Z,1030.90
2019-03-20T07:31:23.822Z,1030.90
2019-03-20T07:32:23.714Z,1030.87
2019-03-20T07:33:23.629Z,1030.92
2019-03-20T07:34:23.552Z,1030.92
2019-03-20T07:35:23.464Z,1030.93
2019-03-20T07:36:23.397Z,1030.92
2019-03-20T07:37:23.293Z,1030.87
2019-03-20T07:38:23.208Z,1030.89
2019-03-20T07:39:23.133Z,1030.88
2019-03-20T07:40:23.050Z,1030.91
2019-03-20T07:41:22.967Z,1030.94
2019-03-20T07:42:22.884Z,1030.98
2019-03-20T07:43:22.788Z,1030.97
2019-03-20T07:44:22.713Z,1031.02
2019-03-20T07:45:22.626Z,1031.05
2019-03-20T07:46:22.552Z,1031.08
2019-03-20T07:47:22.450Z,1031.13
2019-03-20T07:48:22.749Z,1031.13
2019-03-20T07:49:22.294Z,1031.15
2019-03-20T07:50:22.210Z,1031.14
2019-03-20T07:51:22.125Z,1031.15
2019-03-20T07:52:22.035Z,1031.23
2019-03-20T07:53:21.944Z,1031.25
2019-03-20T07:54:21.870Z,1031.32
2019-03-20T07:55:21.781Z,1031.32
2019-03-20T07:56:21.717Z,1031.32
2019-03-20T07:57:21.610Z,1031.25
2019-03-20T07:58:21.532Z,1031.21
2019-03-20T07:59:21.441Z,1031.19
2019-03-20T08:00:21.360Z,1031.18
2019-03-20T08:01:21.292Z,1031.17
2019-03-20T08:02:21.201Z,1031.11
2019-03-20T08:03:21.113Z,1031.12
2019-03-20T08:04:21.023Z,1031.09
2019-03-20T08:05:28.845Z,1031.10
2019-03-20T08:06:20.880Z,1031.04
2019-03-20T08:07:20.772Z,1031.05
2019-03-20T08:08:20.696Z,1031.03
2019-03-20T08:09:20.642Z,1031.10
2019-03-20T08:10:20.531Z,1031.10
2019-03-20T08:11:20.437Z,1031.11
2019-03-20T08:12:20.418Z,1031.18
2019-03-20T08:13:20.271Z,1031.20
2019-03-20T08:14:20.189Z,1031.22
2019-03-20T08:15:20.108Z,1031.26
2019-03-20T08:16:20.023Z,1031.29
2019-03-20T08:17:19.960Z,1031.30
2019-03-20T08:18:19.861Z,1031.32
2019-03-20T08:19:19.773Z,1031.38
2019-03-20T08:20:19.693Z,1031.44
2019-03-20T08:21:19.609Z,1031.45
2019-03-20T08:22:19.534Z,1031.48
2019-03-20T08:23:19.442Z,1031.54
2019-03-20T08:24:19.358Z,1031.60
2019-03-20T08:25:19.274Z,1031.64
2019-03-20T08:26:19.197Z,1031.70
2019-03-20T08:27:19.118Z,1031.70
2019-03-20T08:28:19.020Z,1031.68
2019-03-20T08:29:18.948Z,1031.68
2019-03-20T08:30:18.854Z,1031.67
2019-03-20T08:31:18.776Z,1031.65
2019-03-20T08:32:18.706Z,1031.63
2019-03-20T08:33:18.610Z,1031.66
2019-03-20T08:34:18.531Z,1031.70
2019-03-20T08:35:18.448Z,1031.67
2019-03-20T08:36:18.361Z,1031.67
2019-03-20T08:37:18.291Z,1031.67
2019-03-20T08:38:18.994Z,1031.68
2019-03-20T08:39:18.147Z,1031.68
2019-03-20T08:40:18.031Z,1031.67
2019-03-20T08:41:17.943Z,1031.67
2019-03-20T08:42:17.908Z,1031.74
2019-03-20T08:43:17.795Z,1031.76
2019-03-20T08:44:17.711Z,1031.83
2019-03-20T08:45:17.629Z,1031.92
2019-03-20T08:46:17.531Z,1031.90
2019-03-20T08:47:17.479Z,1031.93
2019-03-20T08:48:17.369Z,1031.91
2019-03-20T08:49:17.307Z,1031.90
2019-03-20T08:50:17.225Z,1031.88
2019-03-20T08:51:17.124Z,1031.92
2019-03-20T08:52:17.060Z,1031.90
2019-03-20T08:53:16.970Z,1031.94
2019-03-20T08:54:16.887Z,1031.96
2019-03-20T08:55:16.802Z,1031.99
2019-03-20T08:56:16.715Z,1032.08
2019-03-20T08:57:16.670Z,1032.12
2019-03-20T08:58:16.562Z,1032.16
2019-03-20T08:59:18.119Z,1032.08
2019-03-20T09:00:16.386Z,1032.14
2019-03-20T09:01:16.299Z,1032.10
2019-03-20T09:02:16.232Z,1032.12
2019-03-20T09:03:16.134Z,1032.19
2019-03-20T09:04:16.062Z,1032.24
2019-03-20T09:05:15.967Z,1032.25
2019-03-20T09:06:15.898Z,1032.29
2019-03-20T09:07:15.820Z,1032.27
2019-03-20T09:08:15.775Z,1032.31
2019-03-20T09:09:15.653Z,1032.29
2019-03-20T09:10:15.558Z,1032.24
2019-03-20T09:11:15.483Z,1032.35
2019-03-20T09:12:15.425Z,1032.40
2019-03-20T09:13:15.332Z,1032.50
2019-03-20T09:14:15.264Z,1032.61
2019-03-20T09:15:15.148Z,1032.70
2019-03-20T09:16:15.082Z,1032.75
2019-03-20T09:17:15.024Z,1032.88
2019-03-20T09:18:14.919Z,1033.24
2019-03-20T09:19:14.823Z,1033.51
2019-03-20T09:20:14.749Z,1033.02
2019-03-20T09:21:14.677Z,1033.73
2019-03-20T09:22:14.599Z,1033.55
2019-03-20T09:23:14.500Z,1033.57
2019-03-20T09:24:14.429Z,1033.14
2019-03-20T09:25:14.345Z,1032.84
2019-03-20T09:26:14.261Z,1032.96
2019-03-20T09:27:14.200Z,1032.82
2019-03-20T09:28:14.104Z,1032.66
2019-03-20T09:29:18.476Z,1032.65
2019-03-20T09:30:13.953Z,1032.63
2019-03-20T09:31:13.859Z,1032.64
2019-03-20T09:32:13.805Z,1032.64
2019-03-20T09:33:13.707Z,1032.70
2019-03-20T09:34:13.617Z,1032.78
2019-03-20T09:35:13.545Z,1032.77
2019-03-20T09:36:13.458Z,1032.80
2019-03-20T09:37:13.391Z,1032.77
2019-03-20T09:38:13.307Z,1032.67
2019-03-20T09:39:13.227Z,1032.67
2019-03-20T09:40:13.145Z,1032.70
2019-03-20T09:41:13.068Z,1032.76
2019-03-20T09:42:12.996Z,1032.73
2019-03-20T09:43:12.913Z,1032.73
2019-03-20T09:44:12.828Z,1032.77
2019-03-20T09:45:12.740Z,1032.89
2019-03-20T09:46:12.658Z,1032.88
2019-03-20T09:47:12.602Z,1032.78
2019-03-20T09:48:12.502Z,1032.75
2019-03-20T09:49:12.422Z,1032.82
2019-03-20T09:50:12.352Z,1032.78
2019-03-20T09:51:12.260Z,1032.77
2019-03-20T09:52:12.198Z,1032.80
2019-03-20T09:53:12.099Z,1032.78
2019-03-20T09:54:12.031Z,1032.70
2019-03-20T09:55:11.942Z,1032.69
2019-03-20T09:56:11.865Z,1032.69
2019-03-20T09:57:11.798Z,1032.64
2019-03-20T09:58:12.112Z,1032.58
2019-03-20T09:59:11.618Z,1032.58
2019-03-20T10:00:11.539Z,1032.57
2019-03-20T10:01:11.463Z,1032.59
2019-03-20T10:02:11.414Z,1032.57
2019-03-20T10:03:11.304Z,1032.51
2019-03-20T10:04:11.224Z,1032.45
2019-03-20T10:05:11.145Z,1032.41
2019-03-20T10:06:11.065Z,1032.43
2019-03-20T10:07:10.982Z,1032.42
2019-03-20T10:08:10.917Z,1032.42
2019-03-20T10:09:10.827Z,1032.44
2019-03-20T10:10:10.738Z,1032.46
2019-03-20T10:11:10.695Z,1032.58
2019-03-20T10:12:10.604Z,1032.63
2019-03-20T10:13:10.528Z,1032.69
2019-03-20T10:14:10.451Z,1032.70
2019-03-20T10:15:10.338Z,1032.69
2019-03-20T10:16:10.258Z,1032.71
2019-03-20T10:17:10.185Z,1032.71
2019-03-20T10:18:10.131Z,1032.72
2019-03-20T10:19:10.042Z,1032.72
2019-03-20T10:20:30.973Z,1032.73
2019-03-20T10:21:09.887Z,1032.69
2019-03-20T10:22:09.783Z,1032.71
2019-03-20T10:23:09.720Z,1032.70
2019-03-20T10:24:09.642Z,1032.67
2019-03-20T10:25:09.547Z,1032.68
2019-03-20T10:26:09.626Z,1032.62
2019-03-20T10:27:09.384Z,1032.52
2019-03-20T10:28:09.321Z,1032.53
2019-03-20T10:29:09.338Z,1032.41
2019-03-20T10:30:09.151Z,1032.39
2019-03-20T10:31:09.078Z,1032.42
2019-03-20T10:32:09.006Z,1032.40
2019-03-20T10:33:08.933Z,1032.45
2019-03-20T10:34:08.837Z,1032.48
2019-03-20T10:35:08.761Z,1032.52
2019-03-20T10:36:08.674Z,1032.53
2019-03-20T10:37:08.603Z,1032.51
2019-03-20T10:38:08.531Z,1032.57
2019-03-20T10:39:08.488Z,1032.53
2019-03-20T10:40:08.383Z,1032.58
2019-03-20T10:41:08.298Z,1032.61
2019-03-20T10:42:08.225Z,1032.69
2019-03-20T10:43:08.148Z,1032.63
2019-03-20T10:44:08.061Z,1032.64
2019-03-20T10:45:07.979Z,1032.66
2019-03-20T10:46:07.899Z,1032.63
2019-03-20T10:47:07.831Z,1032.73
2019-03-20T10:48:07.754Z,1032.81
2019-03-20T10:49:07.667Z,1032.76
2019-03-20T10:50:07.582Z,1032.72
2019-03-20T10:51:07.505Z,1032.68
2019-03-20T10:52:07.432Z,1032.68
2019-03-20T10:53:07.357Z,1032.67
2019-03-20T10:54:07.276Z,1032.61
2019-03-20T10:55:07.203Z,1032.53
2019-03-20T10:56:07.118Z,1032.57
2019-03-20T10:57:07.039Z,1032.53
2019-03-20T10:58:06.976Z,1032.53
2019-03-20T10:59:06.947Z,1032.47
2019-03-20T11:00:06.799Z,1032.41
2019-03-20T11:01:06.743Z,1032.29
2019-03-20T11:02:06.655Z,1032.32
2019-03-20T11:03:06.601Z,1032.30
2019-03-20T11:04:06.483Z,1032.23
2019-03-20T11:05:06.412Z,1032.19
2019-03-20T11:06:06.337Z,1032.17
2019-03-20T11:07:06.261Z,1032.12
2019-03-20T11:08:06.202Z,1032.13
2019-03-20T11:09:17.421Z,1032.14
2019-03-20T11:10:06.025Z,1032.13
2019-03-20T11:11:05.939Z,1032.13
2019-03-20T11:12:05.926Z,1032.13
2019-03-20T11:13:05.804Z,1032.16
2019-03-20T11:14:05.701Z,1032.17
2019-03-20T11:15:05.625Z,1032.25
2019-03-20T11:16:05.539Z,1032.26
2019-03-20T11:17:05.465Z,1032.24
2019-03-20T11:18:05.420Z,1032.29
2019-03-20T11:19:05.325Z,1032.29
2019-03-20T11:20:05.220Z,1032.40
2019-03-20T11:21:06.322Z,1032.41
2019-03-20T11:22:05.203Z,1032.40
2019-03-20T11:23:05.009Z,1032.46
2019-03-20T11:24:04.915Z,1032.38
2019-03-20T11:25:04.837Z,1032.46
2019-03-20T11:26:04.748Z,1032.41
2019-03-20T11:27:04.683Z,1032.39
2019-03-20T11:28:04.597Z,1032.40
2019-03-20T11:29:04.519Z,1032.45
2019-03-20T11:30:04.426Z,1032.39
2019-03-20T11:31:04.358Z,1032.38
2019-03-20T11:32:04.281Z,1032.43
2019-03-20T11:33:04.276Z,1032.34
2019-03-20T11:34:04.111Z,1032.42
2019-03-20T11:35:04.043Z,1032.42
2019-03-20T11:36:03.952Z,1032.48
2019-03-20T11:37:03.881Z,1032.52
2019-03-20T11:38:03.820Z,1032.60
2019-03-20T11:39:03.722Z,1032.62
2019-03-20T11:40:03.651Z,1032.60
2019-03-20T11:41:03.562Z,1032.53
2019-03-20T11:42:03.495Z,1032.48
2019-03-20T11:43:03.419Z,1032.40
2019-03-20T11:44:03.341Z,1032.37
2019-03-20T11:45:03.252Z,1032.31
2019-03-20T11:46:03.184Z,1032.34
2019-03-20T11:47:03.094Z,1032.32
2019-03-20T11:48:03.024Z,1032.28
2019-03-20T11:49:02.958Z,1032.30
2019-03-20T11:50:02.863Z,1032.34
2019-03-20T11:51:02.798Z,1032.23
2019-03-20T11:52:02.727Z,1032.27
2019-03-20T11:53:02.634Z,1032.29
2019-03-20T11:54:02.564Z,1032.32
2019-03-20T11:55:02.485Z,1032.34
2019-03-20T11:56:02.395Z,1032.31
2019-03-20T11:57:02.311Z,1032.34
2019-03-20T11:58:02.254Z,1032.26
2019-03-20T11:59:02.188Z,1032.25
2019-03-20T12:00:02.088Z,1032.31
2019-03-20T12:01:02.001Z,1032.34
2019-03-20T12:02:01.933Z,1032.38
2019-03-20T12:03:01.844Z,1032.33
2019-03-20T12:04:01.789Z,1032.37